Time;durP1;ratioP1;P1;durP2;ratioP2;P2;SDS_P1;SDS_P2;PMS_P1;PMS_P2;Temp;Humidity;BMP_temperature;BMP_pressure;BME280_temperature;BME280_humidity;BME280_pressure;Samples;Min_cycle;Max_cycle;Signal;HPM_P1;HPM_P2
2023/06/28 00:00:13;;;;;;;4.15;2.30;;;19.40;91.80;;;;;;4963810;28;20532;-85
2023/06/28 00:02:39;;;;;;;6.68;2.58;;;19.30;91.80;;;;;;4963908;28;20519;-86
2023/06/28 00:05:07;;;;;;;4.88;2.13;;;19.30;91.80;;;;;;4963745;28;20035;-86
2023/06/28 00:07:33;;;;;;;6.97;2.42;;;19.30;91.80;;;;;;4963723;28;20476;-85
2023/06/28 00:09:59;;;;;;;3.08;1.98;;;19.30;91.80;;;;;;4981265;28;20038;-86
2023/06/28 00:12:26;;;;;;;4.10;2.00;;;19.30;91.80;;;;;;4963743;28;20022;-86
2023/06/28 00:14:53;;;;;;;6.40;2.47;;;19.20;91.80;;;;;;4932461;28;20380;-86
2023/06/28 00:17:19;;;;;;;5.32;2.20;;;19.20;91.90;;;;;;4947936;28;20050;-86
2023/06/28 00:19:47;;;;;;;7.75;2.05;;;19.20;91.90;;;;;;4963933;28;20030;-86
2023/06/28 00:22:17;;;;;;;6.13;2.30;;;19.20;92.00;;;;;;4964250;28;20037;-86
2023/06/28 00:24:42;;;;;;;5.18;2.72;;;19.20;92.10;;;;;;4963809;28;20544;-86
2023/06/28 00:27:11;;;;;;;4.70;2.13;;;19.20;92.10;;;;;;4947664;28;20511;-86
2023/06/28 00:29:37;;;;;;;6.20;2.53;;;19.20;92.10;;;;;;4932280;28;20039;-85
2023/06/28 00:32:03;;;;;;;4.60;2.40;;;19.20;92.10;;;;;;4947870;28;20035;-86
2023/06/28 00:34:29;;;;;;;4.85;2.20;;;19.20;92.20;;;;;;4932545;28;20023;-84
2023/06/28 00:36:55;;;;;;;4.88;2.22;;;19.20;92.20;;;;;;4980413;28;20046;-86
2023/06/28 00:39:20;;;;;;;3.15;1.80;;;19.20;92.20;;;;;;4981650;28;20148;-86
2023/06/28 00:41:46;;;;;;;4.45;2.47;;;19.20;92.30;;;;;;4948374;28;20027;-86
2023/06/28 00:44:12;;;;;;;4.65;2.42;;;19.10;92.30;;;;;;4948277;28;20031;-86
2023/06/28 00:46:37;;;;;;;5.78;2.20;;;19.20;92.30;;;;;;4980275;28;20509;-86
2023/06/28 00:49:04;;;;;;;4.10;2.10;;;19.20;92.40;;;;;;4950838;28;20465;-85
2023/06/28 00:51:31;;;;;;;4.85;2.17;;;19.20;92.40;;;;;;4969849;28;20031;-85
2023/06/28 00:53:58;;;;;;;5.75;2.20;;;19.20;92.40;;;;;;4964000;28;20015;-85
2023/06/28 00:56:25;;;;;;;4.25;2.30;;;19.10;92.30;;;;;;4984385;28;20051;-85
2023/06/28 00:58:51;;;;;;;4.10;2.50;;;19.20;92.40;;;;;;4967537;28;20463;-85
2023/06/28 01:01:17;;;;;;;4.47;2.10;;;19.10;92.40;;;;;;4966554;28;20058;-85
2023/06/28 01:03:43;;;;;;;5.10;2.15;;;19.10;92.50;;;;;;4964924;28;20480;-83
2023/06/28 01:06:12;;;;;;;4.13;2.50;;;19.10;92.50;;;;;;4961823;28;20047;-85
2023/06/28 01:08:40;;;;;;;5.35;2.42;;;19.10;92.60;;;;;;4944204;28;20034;-85
2023/06/28 01:11:07;;;;;;;3.55;2.10;;;19.10;92.70;;;;;;4960626;28;20134;-85
2023/06/28 01:13:35;;;;;;;5.47;2.22;;;19.10;92.80;;;;;;4961529;28;20034;-83
2023/06/28 01:16:02;;;;;;;3.08;1.85;;;19.10;92.80;;;;;;4977138;28;20034;-86
2023/06/28 01:18:29;;;;;;;6.78;2.30;;;19.10;93.10;;;;;;4928603;28;20035;-86
2023/06/28 01:20:55;;;;;;;3.80;1.92;;;19.10;93.00;;;;;;4928755;28;20027;-86
2023/06/28 01:23:27;;;;;;;3.83;2.10;;;19.10;93.00;;;;;;4960992;28;20094;-85
2023/06/28 01:25:54;;;;;;;8.02;2.08;;;19.10;93.10;;;;;;4944448;28;20499;-86
2023/06/28 01:28:21;;;;;;;4.32;2.28;;;19.10;93.10;;;;;;4944327;28;20046;-85
2023/06/28 01:30:52;;;;;;;5.53;2.28;;;19.10;93.20;;;;;;4944289;28;20022;-85
2023/06/28 01:33:18;;;;;;;5.97;2.30;;;19.10;93.20;;;;;;4977463;28;20023;-85
2023/06/28 01:35:45;;;;;;;5.03;2.45;;;19.10;93.30;;;;;;4928217;28;20031;-85
2023/06/28 01:38:12;;;;;;;4.15;2.10;;;19.10;93.30;;;;;;4977294;28;20033;-86
2023/06/28 01:40:39;;;;;;;4.97;2.13;;;19.10;93.30;;;;;;4944095;28;20073;-85
2023/06/28 01:43:08;;;;;;;5.18;2.67;;;19.10;93.40;;;;;;4960088;28;20023;-85
2023/06/28 01:45:34;;;;;;;4.25;2.30;;;19.10;93.50;;;;;;4959729;28;20039;-85
2023/06/28 01:48:00;;;;;;;4.53;2.50;;;19.10;93.60;;;;;;4959833;28;20030;-86
2023/06/28 01:50:26;;;;;;;2.85;2.08;;;19.00;93.60;;;;;;4944069;28;20492;-86
2023/06/28 01:52:52;;;;;;;6.45;2.47;;;19.10;93.70;;;;;;4943699;28;20027;-86
2023/06/28 01:55:18;;;;;;;4.38;2.28;;;19.10;93.80;;;;;;4959718;28;20350;-86
2023/06/28 01:57:45;;;;;;;3.92;2.33;;;19.10;93.90;;;;;;4959710;28;20026;-86
2023/06/28 02:00:15;;;;;;;6.93;2.50;;;19.00;94.00;;;;;;4959787;28;20412;-85
2023/06/28 02:02:41;;;;;;;3.57;2.20;;;19.10;94.10;;;;;;4943821;28;20062;-87
2023/06/28 02:05:07;;;;;;;6.60;2.70;;;19.00;94.10;;;;;;4976361;28;20102;-87
2023/06/28 02:07:32;;;;;;;5.60;2.25;;;19.00;94.20;;;;;;4959330;28;20046;-87
2023/06/28 02:09:58;;;;;;;4.85;2.05;;;19.00;94.30;;;;;;4959553;28;20483;-86
2023/06/28 02:12:24;;;;;;;5.68;2.10;;;19.00;94.40;;;;;;4959379;28;20026;-87
2023/06/28 02:14:52;;;;;;;4.40;2.00;;;19.00;94.50;;;;;;4943221;28;20031;-86
2023/06/28 02:17:20;;;;;;;4.65;2.58;;;19.00;94.60;;;;;;4976368;28;20109;-86
2023/06/28 02:19:49;;;;;;;5.93;2.53;;;19.00;94.60;;;;;;4943546;28;20042;-85
2023/06/28 02:22:19;;;;;;;5.15;2.40;;;19.00;94.60;;;;;;4959463;28;20034;-86
2023/06/28 02:24:45;;;;;;;5.22;2.13;;;18.90;94.60;;;;;;4976446;28;20023;-86
2023/06/28 02:27:10;;;;;;;5.30;2.70;;;18.90;94.70;;;;;;4974528;28;20374;-86
2023/06/28 02:29:37;;;;;;;5.63;2.28;;;18.90;94.80;;;;;;4959272;28;20057;-86
2023/06/28 02:32:03;;;;;;;4.63;2.03;;;18.90;94.80;;;;;;4959096;28;20052;-86
2023/06/28 02:34:29;;;;;;;4.30;2.13;;;18.90;94.80;;;;;;4958846;28;20073;-86
2023/06/28 02:36:55;;;;;;;3.83;1.98;;;18.80;94.80;;;;;;4958916;28;20031;-86
2023/06/28 02:39:22;;;;;;;5.22;2.30;;;18.80;94.70;;;;;;4959418;28;20035;-86
2023/06/28 02:41:48;;;;;;;3.72;1.80;;;18.80;94.80;;;;;;4959776;28;20468;-85
2023/06/28 02:44:15;;;;;;;2.90;1.77;;;18.80;94.90;;;;;;4959420;28;20034;-86
2023/06/28 02:46:40;;;;;;;3.90;1.80;;;18.80;94.90;;;;;;4981646;28;20022;-85
2023/06/28 02:49:07;;;;;;;4.50;2.13;;;18.70;94.90;;;;;;4999552;28;20022;-86
2023/06/28 02:51:32;;;;;;;4.85;2.15;;;18.70;95.00;;;;;;4967135;28;20023;-87
2023/06/28 02:53:59;;;;;;;3.35;1.85;;;18.70;95.10;;;;;;4982078;28;20015;-86
2023/06/28 02:56:25;;;;;;;4.43;2.25;;;18.70;95.20;;;;;;4982185;28;20077;-86
2023/06/28 02:58:51;;;;;;;5.13;2.25;;;18.70;95.20;;;;;;4973635;28;20023;-86
2023/06/28 03:01:19;;;;;;;3.75;1.98;;;18.70;95.20;;;;;;4928156;28;20031;-85
2023/06/28 03:03:44;;;;;;;4.97;2.20;;;18.70;95.20;;;;;;4958484;28;20015;-83
2023/06/28 03:06:10;;;;;;;7.07;2.28;;;18.70;95.20;;;;;;4975582;28;20035;-86
2023/06/28 03:08:36;;;;;;;5.03;2.42;;;18.60;95.30;;;;;;4958106;28;20393;-86
2023/06/28 03:11:01;;;;;;;4.25;2.35;;;18.60;95.40;;;;;;4941496;28;20421;-86
2023/06/28 03:13:27;;;;;;;5.97;2.67;;;18.60;95.40;;;;;;4957958;28;20441;-86
2023/06/28 03:15:53;;;;;;;4.78;2.50;;;18.60;95.70;;;;;;4974861;28;20037;-85
2023/06/28 03:18:19;;;;;;;4.63;2.55;;;18.60;95.60;;;;;;4957219;28;20058;-86
2023/06/28 03:20:44;;;;;;;6.05;2.78;;;18.60;95.60;;;;;;4942128;28;20038;-85
2023/06/28 03:23:10;;;;;;;4.55;2.25;;;18.60;95.60;;;;;;4941918;28;20027;-85
2023/06/28 03:25:36;;;;;;;5.07;2.58;;;18.60;95.60;;;;;;4947957;28;20058;-86
2023/06/28 03:28:01;;;;;;;4.03;2.20;;;18.60;95.60;;;;;;4977075;28;20509;-85
2023/06/28 03:30:27;;;;;;;4.32;2.35;;;18.50;95.60;;;;;;4976837;28;20400;-85
2023/06/28 03:32:53;;;;;;;2.88;2.13;;;18.50;95.60;;;;;;4976953;28;20030;-86
2023/06/28 03:35:18;;;;;;;4.10;2.25;;;18.50;95.70;;;;;;4960757;28;20041;-86
2023/06/28 03:37:55;;;;;;;4.50;2.83;;;18.60;95.70;;;;;;4960902;28;20026;-86
2023/06/28 03:40:21;;;;;;;3.15;2.35;;;18.50;95.70;;;;;;4976926;28;20085;-86
2023/06/28 03:42:47;;;;;;;3.47;2.40;;;18.50;95.80;;;;;;4977157;28;20033;-86
2023/06/28 03:45:14;;;;;;;5.30;2.45;;;18.50;95.80;;;;;;4976876;28;20117;-85
2023/06/28 03:47:39;;;;;;;4.43;2.40;;;18.60;95.80;;;;;;4977080;28;20057;-86
2023/06/28 03:50:06;;;;;;;4.18;1.95;;;18.50;95.70;;;;;;4994347;28;20500;-85
2023/06/28 03:52:31;;;;;;;5.53;2.17;;;18.50;95.70;;;;;;4977162;28;20023;-86
2023/06/28 03:54:57;;;;;;;3.95;1.90;;;18.50;95.80;;;;;;4976736;28;20025;-86
2023/06/28 03:57:23;;;;;;;3.97;2.17;;;18.50;95.80;;;;;;4960647;28;20027;-85
2023/06/28 03:59:48;;;;;;;4.25;2.17;;;18.50;95.80;;;;;;4976977;28;20022;-86
2023/06/28 04:02:14;;;;;;;4.97;2.38;;;18.50;95.80;;;;;;4944246;28;20527;-85
2023/06/28 04:04:40;;;;;;;4.05;1.80;;;18.50;95.90;;;;;;4960931;28;20030;-86
2023/06/28 04:07:06;;;;;;;4.50;2.35;;;18.50;95.90;;;;;;4976618;28;20038;-86
2023/06/28 04:09:32;;;;;;;3.75;1.90;;;18.50;95.80;;;;;;4976734;28;20030;-86
2023/06/28 04:11:58;;;;;;;3.55;2.10;;;18.50;95.90;;;;;;4960621;28;20038;-85
2023/06/28 04:14:24;;;;;;;2.83;1.90;;;18.40;95.80;;;;;;4976837;28;20030;-86
2023/06/28 04:16:53;;;;;;;4.00;1.92;;;18.40;95.80;;;;;;4977216;28;20035;-86
2023/06/28 04:19:19;;;;;;;3.92;1.88;;;18.40;95.90;;;;;;4977330;28;20030;-86
2023/06/28 04:21:45;;;;;;;3.10;1.88;;;18.40;95.90;;;;;;4977407;28;20034;-86
2023/06/28 04:24:10;;;;;;;5.18;1.98;;;18.40;95.90;;;;;;4994300;28;20027;-86
2023/06/28 04:26:36;;;;;;;4.15;1.98;;;18.40;95.90;;;;;;4957604;28;20138;-86
2023/06/28 04:29:02;;;;;;;2.83;1.98;;;18.40;95.90;;;;;;4959821;28;20362;-86
2023/06/28 04:31:28;;;;;;;4.90;1.98;;;18.40;95.90;;;;;;4961500;28;20045;-86
2023/06/28 04:33:55;;;;;;;2.25;1.90;;;18.40;95.90;;;;;;4961346;28;20051;-85
2023/06/28 04:36:21;;;;;;;2.45;2.00;;;18.40;96.00;;;;;;4962056;28;20030;-85
2023/06/28 04:38:54;;;;;;;5.55;2.58;;;18.40;96.00;;;;;;4962805;28;20062;-86
2023/06/28 04:41:21;;;;;;;4.63;2.40;;;18.40;96.10;;;;;;5001882;28;20043;-86
2023/06/28 04:43:47;;;;;;;6.10;2.67;;;18.40;96.10;;;;;;5002177;28;20092;-86
2023/06/28 04:46:13;;;;;;;4.40;2.15;;;18.40;96.10;;;;;;4969164;28;20042;-86
2023/06/28 04:48:40;;;;;;;3.20;2.03;;;18.40;96.20;;;;;;4948852;28;20030;-86
2023/06/28 04:51:05;;;;;;;6.15;2.53;;;18.40;96.20;;;;;;4960237;28;20043;-87
2023/06/28 04:53:31;;;;;;;4.03;2.50;;;18.40;96.30;;;;;;4993447;28;20027;-87
2023/06/28 04:55:58;;;;;;;4.32;2.28;;;18.40;96.30;;;;;;4944922;28;20031;-86
2023/06/28 05:01:06;;;;;;;8.73;2.30;;;18.40;96.30;;;;;;5803498;23;20062;-96
2023/06/28 05:03:31;;;;;;;5.78;2.60;;;18.40;96.30;;;;;;4992800;28;20085;-93
2023/06/28 05:06:01;;;;;;;5.93;2.97;;;18.40;96.30;;;;;;5014206;28;20026;-95
2023/06/28 05:08:27;;;;;;;4.82;3.08;;;18.40;96.40;;;;;;4981718;28;20030;-95
2023/06/28 05:10:53;;;;;;;5.28;2.70;;;18.40;96.40;;;;;;4997283;28;20057;-94
2023/06/28 05:13:23;;;;;;;7.68;3.03;;;18.40;96.50;;;;;;5013290;28;20034;-94
2023/06/28 05:15:48;;;;;;;5.38;2.60;;;18.40;96.50;;;;;;4997053;28;20022;-95
2023/06/28 05:18:14;;;;;;;5.60;2.78;;;18.40;96.50;;;;;;4997071;28;20026;-93
2023/06/28 05:20:40;;;;;;;4.65;2.80;;;18.40;96.70;;;;;;4997683;28;20031;-94
2023/06/28 05:23:22;;;;;;;4.57;3.03;;;18.40;96.70;;;;;;4981183;28;20130;-95
2023/06/28 05:25:48;;;;;;;4.40;2.60;;;18.40;96.70;;;;;;4996855;28;20038;-95
2023/06/28 05:28:15;;;;;;;3.70;2.53;;;18.40;96.70;;;;;;4997388;28;20472;-95
2023/06/28 05:30:42;;;;;;;4.53;2.40;;;18.40;96.70;;;;;;4996765;28;20061;-95
2023/06/28 05:33:09;;;;;;;5.00;2.90;;;18.40;96.70;;;;;;4996799;28;20026;-94
2023/06/28 05:35:35;;;;;;;5.32;2.53;;;18.50;96.70;;;;;;4980084;28;20026;-93
2023/06/28 05:38:02;;;;;;;4.57;2.30;;;18.50;96.70;;;;;;4996956;28;20026;-93
2023/06/28 05:40:29;;;;;;;4.47;2.30;;;18.50;96.60;;;;;;4996812;28;20052;-95
2023/06/28 05:42:55;;;;;;;3.70;2.60;;;18.50;96.60;;;;;;4996642;28;20181;-93
2023/06/28 05:45:28;;;;;;;5.50;2.70;;;18.50;96.60;;;;;;4996254;28;20026;-95
2023/06/28 05:47:54;;;;;;;5.80;2.50;;;18.50;96.60;;;;;;4996686;28;20027;-96
2023/06/28 05:50:23;;;;;;;5.45;2.88;;;18.50;96.90;;;;;;4997427;28;20014;-96
2023/06/28 05:52:52;;;;;;;6.15;2.60;;;18.50;96.60;;;;;;4998285;28;20552;-96
2023/06/28 05:55:18;;;;;;;5.72;2.72;;;18.50;96.60;;;;;;4997892;28;20027;-96
2023/06/28 05:57:45;;;;;;;4.50;2.92;;;18.50;96.70;;;;;;4999542;28;20097;-96
2023/06/28 06:00:14;;;;;;;6.13;2.70;;;18.50;96.70;;;;;;4986017;28;20041;-96
2023/06/28 06:02:40;;;;;;;7.72;2.80;;;18.50;96.70;;;;;;5003308;28;20050;-96
2023/06/28 06:05:15;;;;;;;7.55;3.17;;;18.50;96.70;;;;;;5009022;28;20042;-95
2023/06/28 06:07:49;;;;;;;5.47;3.10;;;18.50;96.60;;;;;;5011293;28;20069;-96
2023/06/28 06:10:23;;;;;;;5.45;2.90;;;18.50;96.60;;;;;;5016653;28;20006;-96
2023/06/28 06:12:53;;;;;;;5.32;3.22;;;18.50;96.60;;;;;;5013471;28;20030;-96
2023/06/28 06:15:43;;;;;;;5.90;3.25;;;18.50;96.70;;;;;;5018553;28;20033;-96
2023/06/28 06:18:25;;;;;;;6.95;3.28;;;18.50;96.70;;;;;;5031169;28;20049;-96
2023/06/28 06:21:16;;;;;;;7.55;3.40;;;18.50;96.70;;;;;;4990017;28;20022;-96
2023/06/28 06:26:40;;;;;;;4.97;3.40;;;18.40;96.70;;;;;;5005172;28;20057;-96
2023/06/28 06:29:13;;;;;;;5.22;3.28;;;18.50;96.80;;;;;;5001713;28;20035;-96
2023/06/28 06:31:59;;;;;;;;;;;;;;;;;;;;;
2023/06/28 06:34:29;;;;;;;6.63;3.33;;;18.50;96.90;;;;;;5000739;28;20106;-96
2023/06/28 06:36:57;;;;;;;4.50;3.30;;;18.60;96.90;;;;;;5004880;28;20046;-96
2023/06/28 06:39:25;;;;;;;6.78;4.03;;;18.60;96.80;;;;;;4983734;28;20098;-96
2023/06/28 06:41:59;;;;;;;6.32;3.92;;;18.60;96.80;;;;;;4970624;28;20078;-96
2023/06/28 06:44:28;;;;;;;5.97;3.58;;;18.60;96.90;;;;;;4985600;28;20042;-87
2023/06/28 06:46:59;;;;;;;8.60;4.10;;;18.60;96.90;;;;;;4984390;28;20039;-96
2023/06/28 06:49:25;;;;;;;5.82;3.72;;;18.60;96.90;;;;;;4987399;28;20035;-96
2023/06/28 06:51:51;;;;;;;6.68;3.97;;;18.60;97.00;;;;;;4992357;28;20536;-96
2023/06/28 06:54:17;;;;;;;6.90;4.00;;;18.60;97.00;;;;;;4978796;28;20027;-96
2023/06/28 06:56:50;;;;;;;8.05;4.30;;;18.60;97.10;;;;;;5001300;28;20122;-96
2023/06/28 06:59:19;;;;;;;5.22;3.80;;;18.60;97.10;;;;;;5001012;28;20026;-94
2023/06/28 07:01:46;;;;;;;9.55;4.25;;;18.60;97.20;;;;;;4994562;28;20046;-93
2023/06/28 07:04:12;;;;;;;6.20;3.95;;;18.70;97.20;;;;;;4978566;28;20372;-93
2023/06/28 07:06:38;;;;;;;6.88;4.47;;;18.70;97.20;;;;;;4988609;28;20041;-95
2023/06/28 07:09:04;;;;;;;8.68;4.38;;;18.70;97.30;;;;;;4981925;28;20387;-94
2023/06/28 07:11:30;;;;;;;9.85;4.40;;;18.70;97.30;;;;;;4993318;28;20030;-96
2023/06/28 07:14:02;;;;;;;5.65;3.72;;;18.70;97.40;;;;;;4999319;28;20027;-96
2023/06/28 07:16:31;;;;;;;5.40;3.60;;;18.70;97.40;;;;;;4997747;28;20054;-96
2023/06/28 07:19:05;;;;;;;7.07;4.10;;;18.70;97.50;;;;;;4996333;28;20018;-95
2023/06/28 07:21:33;;;;;;;4.97;4.13;;;18.70;97.50;;;;;;4980368;28;20394;-95
2023/06/28 07:24:01;;;;;;;6.88;4.68;;;18.80;97.50;;;;;;4979921;28;20022;-96
2023/06/28 07:26:30;;;;;;;6.65;4.20;;;18.80;97.50;;;;;;4996349;28;20113;-96
2023/06/28 07:28:59;;;;;;;6.65;4.28;;;18.90;97.50;;;;;;4980522;28;20121;-95
2023/06/28 07:31:27;;;;;;;7.53;4.80;;;18.90;97.50;;;;;;5000764;28;20037;-96
2023/06/28 07:33:53;;;;;;;6.65;3.60;;;18.90;97.50;;;;;;4995373;28;20037;-96
2023/06/28 07:38:54;;;;;;;8.05;4.45;;;18.90;97.50;;;;;;5200331;23;20065;-94
2023/06/28 07:41:23;;;;;;;7.60;4.50;;;19.00;97.40;;;;;;5014745;28;20363;-94
2023/06/28 07:43:51;;;;;;;6.40;3.97;;;19.00;97.40;;;;;;5015461;28;20033;-94
2023/06/28 07:46:19;;;;;;;6.20;3.80;;;19.00;97.40;;;;;;5015338;28;20041;-93
2023/06/28 07:48:49;;;;;;;5.50;3.92;;;19.10;97.50;;;;;;4982091;28;20030;-93
2023/06/28 07:51:17;;;;;;;5.82;3.90;;;19.10;97.40;;;;;;5015360;28;20394;-94
2023/06/28 07:53:45;;;;;;;9.07;4.28;;;19.10;97.40;;;;;;4982133;28;20477;-94
2023/06/28 07:56:13;;;;;;;6.45;4.15;;;19.20;97.40;;;;;;5015482;28;20053;-95
2023/06/28 07:58:39;;;;;;;6.82;3.85;;;19.20;97.50;;;;;;4998687;28;20025;-94
2023/06/28 08:01:04;;;;;;;6.50;3.80;;;19.20;97.40;;;;;;4982477;28;20045;-96
2023/06/28 08:03:30;;;;;;;6.45;4.38;;;19.20;97.50;;;;;;4999707;28;20026;-93
2023/06/28 08:05:56;;;;;;;5.75;3.63;;;19.30;97.50;;;;;;5001798;28;20038;-94
2023/06/28 08:08:22;;;;;;;7.43;3.88;;;19.30;97.40;;;;;;5018246;28;20022;-95
2023/06/28 08:10:47;;;;;;;8.25;4.13;;;19.30;97.40;;;;;;5018968;28;20486;-94
2023/06/28 08:13:13;;;;;;;6.80;3.78;;;19.30;97.40;;;;;;5018946;28;20025;-94
2023/06/28 08:15:39;;;;;;;7.80;4.30;;;19.40;97.30;;;;;;5001529;28;20034;-95
2023/06/28 08:18:09;;;;;;;7.40;3.78;;;19.40;97.30;;;;;;5019016;28;20026;-93
2023/06/28 08:20:35;;;;;;;6.50;4.00;;;19.40;97.30;;;;;;5018889;28;20030;-87
2023/06/28 08:23:02;;;;;;;5.57;3.97;;;19.40;97.30;;;;;;4985581;28;20030;-94
2023/06/28 08:25:28;;;;;;;8.88;4.57;;;19.40;97.30;;;;;;5001191;28;20032;-95
2023/06/28 08:27:54;;;;;;;7.65;4.50;;;19.50;97.40;;;;;;5001191;28;20030;-94
2023/06/28 08:30:19;;;;;;;7.45;3.53;;;19.50;97.40;;;;;;5001090;28;20088;-95
2023/06/28 08:32:45;;;;;;;5.63;3.75;;;19.50;97.40;;;;;;5000964;28;20036;-95
2023/06/28 08:35:13;;;;;;;7.30;4.10;;;19.60;97.30;;;;;;5018649;28;20102;-96
2023/06/28 08:37:42;;;;;;;7.20;3.53;;;19.60;97.30;;;;;;5014244;28;20054;-95
2023/06/28 08:40:12;;;;;;;8.32;3.75;;;19.60;97.30;;;;;;4998019;28;20483;-95
2023/06/28 08:42:44;;;;;;;9.07;3.97;;;19.70;97.10;;;;;;4998103;28;20022;-92
2023/06/28 08:45:13;;;;;;;6.65;3.50;;;19.70;97.00;;;;;;4999414;28;20060;-95
2023/06/28 08:47:41;;;;;;;6.30;3.78;;;19.70;97.00;;;;;;5005207;28;20027;-91
2023/06/28 08:50:08;;;;;;;6.18;3.75;;;19.70;97.00;;;;;;5017269;28;20049;-95
2023/06/28 08:52:35;;;;;;;5.07;3.95;;;19.70;96.90;;;;;;5013998;28;20090;-95
2023/06/28 08:55:04;;;;;;;8.23;4.57;;;19.80;97.00;;;;;;4988777;28;20022;-95
2023/06/28 08:57:30;;;;;;;6.50;3.78;;;19.80;96.90;;;;;;4984867;28;20038;-94
2023/06/28 08:59:56;;;;;;;8.60;3.78;;;19.80;96.90;;;;;;4983529;28;20065;-95
2023/06/28 09:02:25;;;;;;;7.82;4.13;;;19.80;97.10;;;;;;4984296;28;20064;-94
2023/06/28 09:04:54;;;;;;;6.47;4.15;;;19.80;96.80;;;;;;4998772;28;20018;-95
2023/06/28 09:07:21;;;;;;;5.80;4.00;;;19.90;96.80;;;;;;5002322;28;20109;-95
2023/06/28 09:09:48;;;;;;;6.57;3.97;;;19.90;96.80;;;;;;4997777;28;20032;-96
2023/06/28 09:12:15;;;;;;;7.10;4.07;;;19.90;96.70;;;;;;4997858;28;20026;-95
2023/06/28 09:14:43;;;;;;;6.07;3.90;;;19.90;96.70;;;;;;4980199;28;20098;-93
2023/06/28 09:17:09;;;;;;;7.22;4.50;;;20.00;96.80;;;;;;4997100;28;20161;-95
2023/06/28 09:19:38;;;;;;;8.57;4.32;;;20.00;96.70;;;;;;4997202;28;20507;-95
2023/06/28 09:22:10;;;;;;;6.15;4.22;;;20.00;96.70;;;;;;4997847;28;20037;-95
2023/06/28 09:24:36;;;;;;;6.93;4.40;;;20.00;96.50;;;;;;4999238;28;20030;-95
2023/06/28 09:27:11;;;;;;;7.47;4.80;;;20.00;96.50;;;;;;4992775;28;20043;-93
2023/06/28 09:29:47;;;;;;;;;;;;;;;;;;;;;
2023/06/28 09:32:13;;;;;;;7.07;4.00;;;20.00;96.50;;;;;;4990008;28;20020;-92
2023/06/28 09:34:41;;;;;;;6.85;4.20;;;20.00;96.60;;;;;;4985835;28;20086;-95
2023/06/28 09:37:07;;;;;;;7.88;4.28;;;20.00;96.50;;;;;;4981733;28;20038;-96
2023/06/28 09:39:37;;;;;;;7.18;4.25;;;20.10;96.60;;;;;;4990795;28;20097;-95
2023/06/28 09:42:05;;;;;;;6.00;3.67;;;20.10;96.60;;;;;;4986305;28;20029;-95
2023/06/28 09:44:36;;;;;;;6.47;4.18;;;20.10;96.60;;;;;;4978906;28;20022;-94
2023/06/28 09:47:08;;;;;;;5.72;3.92;;;20.20;96.60;;;;;;4994913;28;20038;-95
2023/06/28 09:49:34;;;;;;;19.48;4.55;;;20.30;96.60;;;;;;4980479;28;20042;-95
2023/06/28 09:51:59;;;;;;;11.18;4.45;;;20.30;96.50;;;;;;4993989;28;20023;-94
2023/06/28 09:54:35;;;;;;;8.82;4.28;;;20.30;96.40;;;;;;4978489;28;20047;-93
2023/06/28 09:57:02;;;;;;;8.93;5.03;;;20.30;96.20;;;;;;4979320;28;20038;-92
2023/06/28 09:59:34;;;;;;;7.60;4.35;;;20.30;96.00;;;;;;4979064;28;20038;-95
2023/06/28 10:02:05;;;;;;;8.65;5.43;;;20.30;95.90;;;;;;4977944;28;20073;-94
2023/06/28 10:04:37;;;;;;;7.53;4.50;;;20.30;95.90;;;;;;4990330;28;20026;-94
2023/06/28 10:07:04;;;;;;;7.25;4.63;;;20.30;95.90;;;;;;4996531;28;20061;-92
2023/06/28 10:09:40;;;;;;;7.25;4.28;;;20.30;96.00;;;;;;4995601;28;20022;-94
2023/06/28 10:12:12;;;;;;;9.40;4.88;;;20.30;96.00;;;;;;5000702;28;20049;-94
2023/06/28 10:14:41;;;;;;;9.55;4.80;;;20.40;96.00;;;;;;5016262;28;20026;-93
2023/06/28 10:17:22;;;;;;;7.03;4.72;;;20.40;96.10;;;;;;5000044;28;20108;-96
2023/06/28 10:19:54;;;;;;;7.97;4.72;;;20.50;96.10;;;;;;4997923;28;20097;-89
2023/06/28 10:22:29;;;;;;;7.22;4.65;;;20.50;96.10;;;;;;4996876;28;20031;-94
2023/06/28 10:24:57;;;;;;;9.13;4.82;;;20.50;96.00;;;;;;5007318;28;20046;-96
2023/06/28 10:27:23;;;;;;;9.18;4.75;;;20.60;96.00;;;;;;4996678;28;20034;-96
2023/06/28 10:29:56;;;;;;;6.30;4.53;;;20.60;95.90;;;;;;4996430;28;20026;-92
2023/06/28 10:32:26;;;;;;;7.63;4.65;;;20.60;95.90;;;;;;5017134;28;20025;-96
2023/06/28 10:34:52;;;;;;;6.78;4.40;;;20.70;95.80;;;;;;4999942;28;20100;-96
2023/06/28 10:37:43;;;;;;;6.35;4.45;;;20.80;95.80;;;;;;5016216;28;20049;-94
2023/06/28 10:40:12;;;;;;;7.93;4.05;;;20.80;95.80;;;;;;4963615;28;20069;-94
2023/06/28 10:42:51;;;;;;;11.63;5.47;;;20.90;95.80;;;;;;4980771;28;20113;-95
2023/06/28 10:45:35;;;;;;;7.95;4.60;;;21.00;95.70;;;;;;4990641;28;20041;-94
2023/06/28 10:48:02;;;;;;;7.25;4.75;;;21.10;95.60;;;;;;5016519;28;20186;-95
2023/06/28 10:50:28;;;;;;;8.93;4.30;;;21.20;95.60;;;;;;4998013;28;20022;-95
2023/06/28 10:53:00;;;;;;;8.18;4.78;;;21.20;95.60;;;;;;4988620;28;20026;-93
2023/06/28 10:55:33;;;;;;;7.57;4.40;;;21.30;95.50;;;;;;5015467;28;20030;-93
2023/06/28 10:58:19;;;;;;;6.78;4.70;;;21.40;95.50;;;;;;4995565;28;20027;-92
2023/06/28 11:00:47;;;;;;;7.15;4.80;;;21.50;95.30;;;;;;4983730;28;20064;-92
2023/06/28 11:03:16;;;;;;;7.82;4.85;;;21.50;95.20;;;;;;5016266;28;20034;-96
2023/06/28 11:05:44;;;;;;;5.97;4.18;;;21.60;95.20;;;;;;4999875;28;20093;-92
2023/06/28 11:08:15;;;;;;;7.10;4.25;;;21.70;95.20;;;;;;4998084;28;20121;-92
2023/06/28 11:10:51;;;;;;;;;;;21.80;95.10;;;;;;4998390;28;20493;-93
2023/06/28 11:13:39;;;;;;;6.93;4.32;;;21.80;95.00;;;;;;4997135;28;19905;-93
2023/06/28 11:16:08;;;;;;;7.07;4.85;;;22.00;95.00;;;;;;4995066;28;20030;-93
2023/06/28 11:18:42;;;;;;;7.45;4.63;;;22.00;94.80;;;;;;4997995;28;20053;-94
2023/06/28 11:21:22;;;;;;;5.82;4.55;;;22.20;94.80;;;;;;4958630;28;20034;-93
2023/06/28 11:23:51;;;;;;;7.00;4.75;;;22.30;94.80;;;;;;4978318;28;20050;-90
2023/06/28 11:26:35;;;;;;;6.78;4.95;;;22.30;94.70;;;;;;4981130;28;20474;-92
2023/06/28 11:29:00;;;;;;;9.60;4.88;;;22.40;94.60;;;;;;5015340;28;20021;-92
2023/06/28 11:31:40;;;;;;;6.18;4.57;;;22.50;94.50;;;;;;5012080;28;20102;-92
2023/06/28 11:34:09;;;;;;;6.82;4.75;;;22.60;94.40;;;;;;4997234;28;20037;-93
2023/06/28 11:36:36;;;;;;;7.97;4.80;;;22.60;94.40;;;;;;5008453;28;20087;-92
2023/06/28 11:39:07;;;;;;;7.80;5.07;;;22.70;94.30;;;;;;4985504;28;20541;-92
2023/06/28 11:41:36;;;;;;;8.70;5.03;;;22.80;94.40;;;;;;4987208;28;20403;-93
2023/06/28 11:44:14;;;;;;;6.80;4.82;;;22.80;94.00;;;;;;4989683;28;20499;-90
2023/06/28 11:46:41;;;;;;;8.13;5.00;;;22.90;93.90;;;;;;4984384;28;20030;-92
2023/06/28 11:49:08;;;;;;;6.75;4.68;;;22.90;93.80;;;;;;4985847;28;20029;-92
2023/06/28 11:51:35;;;;;;;8.90;5.70;;;23.00;93.70;;;;;;4988565;28;20170;-92
2023/06/28 11:54:07;;;;;;;9.63;5.38;;;23.00;93.30;;;;;;4979829;28;20031;-92
2023/06/28 11:56:44;;;;;;;10.05;4.85;;;23.10;93.00;;;;;;4985797;28;20464;-92
2023/06/28 11:59:18;;;;;;;7.35;5.15;;;23.00;93.00;;;;;;4988267;28;20026;-91
2023/06/28 12:01:46;;;;;;;8.30;5.13;;;23.10;93.10;;;;;;4979990;28;20468;-92
2023/06/28 12:04:22;;;;;;;7.38;5.22;;;23.20;93.10;;;;;;4984607;28;20026;-91
2023/06/28 12:06:48;;;;;;;9.05;4.85;;;23.10;93.10;;;;;;4988329;28;20345;-91
2023/06/28 12:09:26;;;;;;;8.20;5.70;;;23.20;93.10;;;;;;4978554;28;20117;-91
2023/06/28 12:12:05;;;;;;;10.35;6.05;;;23.10;93.00;;;;;;4993129;28;20042;-92
2023/06/28 12:14:39;;;;;;;6.47;4.78;;;23.10;92.90;;;;;;4978661;28;20097;-92
2023/06/28 12:17:08;;;;;;;7.50;5.47;;;23.10;92.90;;;;;;4983442;28;20034;-92
2023/06/28 12:19:35;;;;;;;10.98;6.63;;;23.20;92.80;;;;;;4984619;28;20057;-93
2023/06/28 12:22:09;;;;;;;10.13;5.88;;;23.10;92.50;;;;;;4993352;28;20053;-88
2023/06/28 12:24:36;;;;;;;10.13;5.80;;;23.20;92.40;;;;;;4981179;28;20153;-92
2023/06/28 12:27:05;;;;;;;7.47;5.50;;;23.20;92.60;;;;;;4997037;28;20058;-92
2023/06/28 12:29:35;;;;;;;9.65;5.53;;;23.10;92.50;;;;;;4987015;28;20015;-91
2023/06/28 12:32:14;;;;;;;7.53;5.40;;;23.20;92.60;;;;;;4987560;28;20030;-90
2023/06/28 12:34:48;;;;;;;10.82;5.68;;;23.20;92.70;;;;;;4983251;28;20019;-95
2023/06/28 12:37:14;;;;;;;8.55;5.55;;;23.30;92.80;;;;;;4984871;28;20034;-88
2023/06/28 12:39:41;;;;;;;8.30;5.20;;;23.30;92.80;;;;;;4985528;28;20027;-93
2023/06/28 12:42:10;;;;;;;8.52;5.75;;;23.30;92.70;;;;;;4963995;28;20023;-94
2023/06/28 12:44:51;;;;;;;7.32;5.38;;;23.40;92.70;;;;;;4978324;28;20057;-93
2023/06/28 12:47:28;;;;;;;7.45;5.57;;;23.40;92.80;;;;;;5008004;28;20037;-93
2023/06/28 12:49:57;;;;;;;9.38;5.72;;;23.40;92.80;;;;;;5000051;28;20023;-93
2023/06/28 12:52:24;;;;;;;9.35;5.75;;;23.40;92.80;;;;;;4990987;28;20043;-92
2023/06/28 12:54:51;;;;;;;7.53;5.60;;;23.50;92.80;;;;;;5009090;28;20027;-92
2023/06/28 12:57:24;;;;;;;7.93;6.28;;;23.50;92.80;;;;;;4985234;28;20113;-92
2023/06/28 12:59:51;;;;;;;6.90;5.95;;;23.60;92.80;;;;;;4978384;28;20464;-92
2023/06/28 13:02:17;;;;;;;8.50;5.63;;;23.60;92.80;;;;;;4979269;28;20027;-91